sensor_id;sensor_type;location;lat;lon;timestamp;P1;durP1;ratioP1;P2;durP2;ratioP2
55316;SDS011;41178;48.956;8.130;2022-12-07T00:04:27;14.97;;;11.30;;
55316;SDS011;41178;48.956;8.130;2022-12-07T00:09:28;15.57;;;12.30;;
55316;SDS011;41178;48.956;8.130;2022-12-07T00:14:30;13.67;;;11.03;;
55316;SDS011;41178;48.956;8.130;2022-12-07T00:19:32;16.40;;;10.93;;
55316;SDS011;41178;48.956;8.130;2022-12-07T00:24:34;13.53;;;11.07;;
55316;SDS011;41178;48.956;8.130;2022-12-07T00:29:35;15.53;;;10.47;;
55316;SDS011;41178;48.956;8.130;2022-12-07T00:34:38;14.07;;;10.33;;
55316;SDS011;41178;48.956;8.130;2022-12-07T00:39:39;14.10;;;11.10;;
55316;SDS011;41178;48.956;8.130;2022-12-07T00:44:41;15.60;;;11.40;;
55316;SDS011;41178;48.956;8.130;2022-12-07T00:49:43;16.83;;;12.50;;
55316;SDS011;41178;48.956;8.130;2022-12-07T00:54:44;14.90;;;12.27;;
55316;SDS011;41178;48.956;8.130;2022-12-07T00:59:46;14.33;;;11.20;;
55316;SDS011;41178;48.956;8.130;2022-12-07T01:04:48;14.53;;;11.50;;
55316;SDS011;41178;48.956;8.130;2022-12-07T01:09:49;16.67;;;11.27;;
55316;SDS011;41178;48.956;8.130;2022-12-07T01:14:51;14.67;;;11.13;;
55316;SDS011;41178;48.956;8.130;2022-12-07T01:19:52;15.27;;;12.03;;
55316;SDS011;41178;48.956;8.130;2022-12-07T01:24:54;14.77;;;11.27;;
55316;SDS011;41178;48.956;8.130;2022-12-07T01:29:56;15.73;;;12.07;;
55316;SDS011;41178;48.956;8.130;2022-12-07T01:34:57;15.90;;;11.73;;
55316;SDS011;41178;48.956;8.130;2022-12-07T01:39:59;17.60;;;11.70;;
55316;SDS011;41178;48.956;8.130;2022-12-07T01:50:25;15.87;;;11.57;;
55316;SDS011;41178;48.956;8.130;2022-12-07T01:55:29;16.67;;;11.57;;
55316;SDS011;41178;48.956;8.130;2022-12-07T02:00:31;14.33;;;11.10;;
55316;SDS011;41178;48.956;8.130;2022-12-07T02:05:33;13.50;;;9.70;;
55316;SDS011;41178;48.956;8.130;2022-12-07T02:10:36;12.17;;;10.53;;
55316;SDS011;41178;48.956;8.130;2022-12-07T02:31:19;13.37;;;10.00;;
55316;SDS011;41178;48.956;8.130;2022-12-07T02:36:31;11.57;;;9.60;;
55316;SDS011;41178;48.956;8.130;2022-12-07T02:41:40;14.77;;;9.90;;
55316;SDS011;41178;48.956;8.130;2022-12-07T02:46:50;12.47;;;9.77;;
55316;SDS011;41178;48.956;8.130;2022-12-07T02:51:56;11.33;;;9.30;;
55316;SDS011;41178;48.956;8.130;2022-12-07T03:02:52;14.87;;;10.03;;
55316;SDS011;41178;48.956;8.130;2022-12-07T03:08:11;10.87;;;9.30;;
55316;SDS011;41178;48.956;8.130;2022-12-07T03:23:56;13.03;;;10.07;;
55316;SDS011;41178;48.956;8.130;2022-12-07T03:29:04;11.73;;;9.30;;
55316;SDS011;41178;48.956;8.130;2022-12-07T03:34:21;13.07;;;9.97;;
55316;SDS011;41178;48.956;8.130;2022-12-07T03:45:05;12.90;;;9.50;;
55316;SDS011;41178;48.956;8.130;2022-12-07T03:50:52;14.77;;;9.97;;
55316;SDS011;41178;48.956;8.130;2022-12-07T03:55:39;13.93;;;10.73;;
55316;SDS011;41178;48.956;8.130;2022-12-07T04:00:43;11.90;;;10.27;;
55316;SDS011;41178;48.956;8.130;2022-12-07T04:05:46;14.67;;;10.90;;
55316;SDS011;41178;48.956;8.130;2022-12-07T04:10:48;15.33;;;9.70;;
55316;SDS011;41178;48.956;8.130;2022-12-07T04:15:50;12.80;;;10.00;;
55316;SDS011;41178;48.956;8.130;2022-12-07T04:20:52;12.67;;;10.67;;
55316;SDS011;41178;48.956;8.130;2022-12-07T04:25:53;11.57;;;9.57;;
55316;SDS011;41178;48.956;8.130;2022-12-07T04:30:55;16.20;;;11.80;;
55316;SDS011;41178;48.956;8.130;2022-12-07T04:35:56;17.70;;;13.90;;
55316;SDS011;41178;48.956;8.130;2022-12-07T04:40:58;14.20;;;11.67;;
55316;SDS011;41178;48.956;8.130;2022-12-07T04:46:06;14.20;;;11.77;;
55316;SDS011;41178;48.956;8.130;2022-12-07T04:51:08;13.30;;;10.50;;
55316;SDS011;41178;48.956;8.130;2022-12-07T04:56:09;14.30;;;11.03;;
55316;SDS011;41178;48.956;8.130;2022-12-07T05:01:12;14.37;;;10.70;;
55316;SDS011;41178;48.956;8.130;2022-12-07T05:06:14;19.77;;;11.30;;
55316;SDS011;41178;48.956;8.130;2022-12-07T05:11:16;14.40;;;11.17;;
55316;SDS011;41178;48.956;8.130;2022-12-07T05:16:37;13.23;;;10.97;;
55316;SDS011;41178;48.956;8.130;2022-12-07T05:21:39;13.00;;;9.97;;
55316;SDS011;41178;48.956;8.130;2022-12-07T05:26:41;13.87;;;10.30;;
55316;SDS011;41178;48.956;8.130;2022-12-07T05:31:43;13.83;;;10.57;;
55316;SDS011;41178;48.956;8.130;2022-12-07T05:36:46;11.93;;;9.60;;
55316;SDS011;41178;48.956;8.130;2022-12-07T05:41:48;14.03;;;11.07;;
55316;SDS011;41178;48.956;8.130;2022-12-07T05:47:08;13.53;;;10.63;;
55316;SDS011;41178;48.956;8.130;2022-12-07T05:52:10;13.13;;;10.97;;
55316;SDS011;41178;48.956;8.130;2022-12-07T05:57:12;12.27;;;10.40;;
55316;SDS011;41178;48.956;8.130;2022-12-07T06:02:14;14.37;;;11.07;;
55316;SDS011;41178;48.956;8.130;2022-12-07T06:07:16;14.57;;;11.27;;
55316;SDS011;41178;48.956;8.130;2022-12-07T06:12:18;13.37;;;9.00;;
55316;SDS011;41178;48.956;8.130;2022-12-07T06:17:35;13.77;;;11.00;;
55316;SDS011;41178;48.956;8.130;2022-12-07T06:22:37;14.00;;;10.47;;
55316;SDS011;41178;48.956;8.130;2022-12-07T06:27:39;13.07;;;9.90;;
55316;SDS011;41178;48.956;8.130;2022-12-07T06:32:41;11.73;;;8.90;;
55316;SDS011;41178;48.956;8.130;2022-12-07T06:37:42;14.87;;;10.13;;
55316;SDS011;41178;48.956;8.130;2022-12-07T06:42:44;13.77;;;10.83;;
55316;SDS011;41178;48.956;8.130;2022-12-07T06:47:46;16.53;;;10.87;;
55316;SDS011;41178;48.956;8.130;2022-12-07T06:52:48;12.60;;;9.73;;
55316;SDS011;41178;48.956;8.130;2022-12-07T06:57:49;14.33;;;10.07;;
55316;SDS011;41178;48.956;8.130;2022-12-07T07:02:51;16.53;;;11.27;;
55316;SDS011;41178;48.956;8.130;2022-12-07T07:07:53;11.93;;;8.60;;
55316;SDS011;41178;48.956;8.130;2022-12-07T07:13:15;13.40;;;8.93;;
55316;SDS011;41178;48.956;8.130;2022-12-07T07:18:16;13.60;;;11.00;;
55316;SDS011;41178;48.956;8.130;2022-12-07T07:23:18;15.40;;;10.33;;
55316;SDS011;41178;48.956;8.130;2022-12-07T07:28:20;13.10;;;9.87;;
55316;SDS011;41178;48.956;8.130;2022-12-07T07:33:22;9.23;;;6.87;;
55316;SDS011;41178;48.956;8.130;2022-12-07T07:38:24;11.00;;;8.83;;
55316;SDS011;41178;48.956;8.130;2022-12-07T07:43:26;13.80;;;10.23;;
55316;SDS011;41178;48.956;8.130;2022-12-07T07:48:27;13.30;;;9.97;;
55316;SDS011;41178;48.956;8.130;2022-12-07T07:53:29;14.13;;;10.27;;
55316;SDS011;41178;48.956;8.130;2022-12-07T07:58:31;11.50;;;9.43;;
55316;SDS011;41178;48.956;8.130;2022-12-07T08:03:32;12.57;;;9.90;;
55316;SDS011;41178;48.956;8.130;2022-12-07T08:08:34;11.80;;;9.43;;
55316;SDS011;41178;48.956;8.130;2022-12-07T08:13:36;12.57;;;9.30;;
55316;SDS011;41178;48.956;8.130;2022-12-07T08:18:39;12.67;;;9.23;;
55316;SDS011;41178;48.956;8.130;2022-12-07T08:23:41;9.80;;;6.77;;
55316;SDS011;41178;48.956;8.130;2022-12-07T08:28:43;13.53;;;10.17;;
55316;SDS011;41178;48.956;8.130;2022-12-07T08:33:46;13.97;;;9.37;;
55316;SDS011;41178;48.956;8.130;2022-12-07T08:38:48;11.90;;;9.77;;
55316;SDS011;41178;48.956;8.130;2022-12-07T08:44:11;13.33;;;9.83;;
55316;SDS011;41178;48.956;8.130;2022-12-07T08:49:20;16.20;;;11.00;;
55316;SDS011;41178;48.956;8.130;2022-12-07T08:54:25;15.13;;;10.40;;
55316;SDS011;41178;48.956;8.130;2022-12-07T08:59:28;13.93;;;10.57;;
55316;SDS011;41178;48.956;8.130;2022-12-07T09:04:30;14.33;;;10.53;;
55316;SDS011;41178;48.956;8.130;2022-12-07T09:09:32;14.50;;;11.20;;
55316;SDS011;41178;48.956;8.130;2022-12-07T09:14:34;14.07;;;11.00;;
55316;SDS011;41178;48.956;8.130;2022-12-07T09:19:36;15.13;;;11.50;;
55316;SDS011;41178;48.956;8.130;2022-12-07T09:24:38;17.70;;;12.20;;
55316;SDS011;41178;48.956;8.130;2022-12-07T09:29:40;16.27;;;12.57;;
55316;SDS011;41178;48.956;8.130;2022-12-07T09:34:42;14.40;;;10.40;;
55316;SDS011;41178;48.956;8.130;2022-12-07T09:39:43;13.80;;;10.17;;
55316;SDS011;41178;48.956;8.130;2022-12-07T09:44:50;16.93;;;12.97;;
55316;SDS011;41178;48.956;8.130;2022-12-07T09:49:52;15.40;;;10.70;;
55316;SDS011;41178;48.956;8.130;2022-12-07T09:54:59;14.23;;;11.50;;
55316;SDS011;41178;48.956;8.130;2022-12-07T10:00:03;15.23;;;11.17;;
55316;SDS011;41178;48.956;8.130;2022-12-07T10:05:13;16.43;;;11.67;;
55316;SDS011;41178;48.956;8.130;2022-12-07T10:10:25;13.80;;;10.30;;
55316;SDS011;41178;48.956;8.130;2022-12-07T10:15:47;13.10;;;10.53;;
55316;SDS011;41178;48.956;8.130;2022-12-07T10:20:49;15.37;;;11.97;;
55316;SDS011;41178;48.956;8.130;2022-12-07T10:25:50;13.13;;;10.30;;
55316;SDS011;41178;48.956;8.130;2022-12-07T10:30:57;15.60;;;11.13;;
55316;SDS011;41178;48.956;8.130;2022-12-07T10:36:01;14.17;;;10.20;;
55316;SDS011;41178;48.956;8.130;2022-12-07T10:41:21;14.53;;;11.00;;
55316;SDS011;41178;48.956;8.130;2022-12-07T10:57:47;16.10;;;12.90;;
55316;SDS011;41178;48.956;8.130;2022-12-07T11:06:57;14.30;;;10.43;;
55316;SDS011;41178;48.956;8.130;2022-12-07T11:17:42;15.30;;;11.07;;
55316;SDS011;41178;48.956;8.130;2022-12-07T11:33:46;15.37;;;11.63;;
55316;SDS011;41178;48.956;8.130;2022-12-07T11:39:00;15.80;;;11.27;;
55316;SDS011;41178;48.956;8.130;2022-12-07T11:44:06;19.30;;;15.23;;
55316;SDS011;41178;48.956;8.130;2022-12-07T11:49:15;35.80;;;27.10;;
55316;SDS011;41178;48.956;8.130;2022-12-07T11:54:26;17.20;;;12.43;;
55316;SDS011;41178;48.956;8.130;2022-12-07T11:59:36;16.33;;;11.67;;
55316;SDS011;41178;48.956;8.130;2022-12-07T12:04:51;18.63;;;12.57;;
55316;SDS011;41178;48.956;8.130;2022-12-07T12:10:02;15.73;;;12.13;;
55316;SDS011;41178;48.956;8.130;2022-12-07T12:25:29;17.23;;;12.53;;
55316;SDS011;41178;48.956;8.130;2022-12-07T12:30:40;95.03;;;16.10;;
55316;SDS011;41178;48.956;8.130;2022-12-07T12:35:42;15.80;;;11.70;;
55316;SDS011;41178;48.956;8.130;2022-12-07T12:40:44;24.90;;;15.07;;
55316;SDS011;41178;48.956;8.130;2022-12-07T12:45:51;16.27;;;11.47;;
55316;SDS011;41178;48.956;8.130;2022-12-07T12:51:38;16.70;;;12.37;;
55316;SDS011;41178;48.956;8.130;2022-12-07T13:18:25;24.00;;;19.10;;
55316;SDS011;41178;48.956;8.130;2022-12-07T13:28:52;15.63;;;11.33;;
55316;SDS011;41178;48.956;8.130;2022-12-07T13:39:34;14.63;;;11.20;;
55316;SDS011;41178;48.956;8.130;2022-12-07T13:44:45;14.47;;;10.77;;
55316;SDS011;41178;48.956;8.130;2022-12-07T13:49:48;13.57;;;10.13;;
55316;SDS011;41178;48.956;8.130;2022-12-07T13:55:00;15.20;;;10.90;;
55316;SDS011;41178;48.956;8.130;2022-12-07T14:00:04;18.57;;;12.90;;
55316;SDS011;41178;48.956;8.130;2022-12-07T14:05:15;13.73;;;11.03;;
55316;SDS011;41178;48.956;8.130;2022-12-07T14:10:26;14.17;;;10.60;;
55316;SDS011;41178;48.956;8.130;2022-12-07T14:15:29;15.17;;;10.80;;
55316;SDS011;41178;48.956;8.130;2022-12-07T14:25:47;12.97;;;10.37;;
55316;SDS011;41178;48.956;8.130;2022-12-07T14:30:52;15.60;;;11.23;;
55316;SDS011;41178;48.956;8.130;2022-12-07T14:35:55;18.07;;;12.07;;
55316;SDS011;41178;48.956;8.130;2022-12-07T14:40:59;16.00;;;11.40;;
55316;SDS011;41178;48.956;8.130;2022-12-07T14:46:21;14.20;;;10.47;;
55316;SDS011;41178;48.956;8.130;2022-12-07T14:51:23;14.00;;;10.37;;
55316;SDS011;41178;48.956;8.130;2022-12-07T14:56:45;14.27;;;9.67;;
55316;SDS011;41178;48.956;8.130;2022-12-07T15:01:50;14.70;;;9.37;;
55316;SDS011;41178;48.956;8.130;2022-12-07T15:06:58;14.07;;;10.03;;
55316;SDS011;41178;48.956;8.130;2022-12-07T15:12:02;14.97;;;11.57;;
55316;SDS011;41178;48.956;8.130;2022-12-07T15:17:04;15.03;;;10.13;;
55316;SDS011;41178;48.956;8.130;2022-12-07T15:22:11;13.30;;;10.70;;
55316;SDS011;41178;48.956;8.130;2022-12-07T15:27:13;13.40;;;10.00;;
55316;SDS011;41178;48.956;8.130;2022-12-07T15:32:15;14.87;;;10.00;;
55316;SDS011;41178;48.956;8.130;2022-12-07T15:37:17;10.97;;;8.57;;
55316;SDS011;41178;48.956;8.130;2022-12-07T15:42:19;14.03;;;10.20;;
55316;SDS011;41178;48.956;8.130;2022-12-07T15:47:20;13.87;;;9.80;;
55316;SDS011;41178;48.956;8.130;2022-12-07T15:52:22;16.27;;;10.80;;
55316;SDS011;41178;48.956;8.130;2022-12-07T15:57:24;13.90;;;10.07;;
55316;SDS011;41178;48.956;8.130;2022-12-07T16:02:26;13.87;;;11.00;;
55316;SDS011;41178;48.956;8.130;2022-12-07T16:07:29;14.73;;;10.57;;
55316;SDS011;41178;48.956;8.130;2022-12-07T16:12:31;15.63;;;11.03;;
55316;SDS011;41178;48.956;8.130;2022-12-07T16:17:32;15.43;;;10.93;;
55316;SDS011;41178;48.956;8.130;2022-12-07T16:22:34;14.90;;;10.93;;
55316;SDS011;41178;48.956;8.130;2022-12-07T16:27:36;14.77;;;10.53;;
55316;SDS011;41178;48.956;8.130;2022-12-07T16:32:37;18.30;;;11.37;;
55316;SDS011;41178;48.956;8.130;2022-12-07T16:37:41;16.77;;;11.97;;
55316;SDS011;41178;48.956;8.130;2022-12-07T16:42:43;15.50;;;11.80;;
55316;SDS011;41178;48.956;8.130;2022-12-07T16:47:45;21.30;;;13.83;;
55316;SDS011;41178;48.956;8.130;2022-12-07T16:52:47;17.23;;;12.83;;
55316;SDS011;41178;48.956;8.130;2022-12-07T16:57:48;18.00;;;13.23;;
55316;SDS011;41178;48.956;8.130;2022-12-07T17:02:50;22.03;;;13.97;;
55316;SDS011;41178;48.956;8.130;2022-12-07T17:07:52;20.23;;;14.93;;
55316;SDS011;41178;48.956;8.130;2022-12-07T17:12:54;16.00;;;11.30;;
55316;SDS011;41178;48.956;8.130;2022-12-07T17:17:56;15.43;;;10.93;;
55316;SDS011;41178;48.956;8.130;2022-12-07T17:22:59;15.07;;;11.23;;
55316;SDS011;41178;48.956;8.130;2022-12-07T17:28:01;15.97;;;12.07;;
55316;SDS011;41178;48.956;8.130;2022-12-07T17:33:02;16.47;;;11.70;;
55316;SDS011;41178;48.956;8.130;2022-12-07T17:38:04;17.77;;;12.53;;
55316;SDS011;41178;48.956;8.130;2022-12-07T17:43:06;17.40;;;12.97;;
55316;SDS011;41178;48.956;8.130;2022-12-07T17:48:08;15.40;;;11.57;;
55316;SDS011;41178;48.956;8.130;2022-12-07T17:53:10;17.53;;;13.43;;
55316;SDS011;41178;48.956;8.130;2022-12-07T17:58:12;18.43;;;13.13;;
55316;SDS011;41178;48.956;8.130;2022-12-07T18:03:14;15.90;;;11.50;;
55316;SDS011;41178;48.956;8.130;2022-12-07T18:08:16;18.03;;;12.90;;
55316;SDS011;41178;48.956;8.130;2022-12-07T18:13:18;16.50;;;13.07;;
55316;SDS011;41178;48.956;8.130;2022-12-07T18:18:38;16.60;;;11.23;;
55316;SDS011;41178;48.956;8.130;2022-12-07T18:23:41;24.77;;;13.80;;
55316;SDS011;41178;48.956;8.130;2022-12-07T18:28:45;20.07;;;14.17;;
55316;SDS011;41178;48.956;8.130;2022-12-07T18:33:47;19.27;;;13.23;;
55316;SDS011;41178;48.956;8.130;2022-12-07T18:38:49;17.00;;;13.43;;
55316;SDS011;41178;48.956;8.130;2022-12-07T18:43:52;20.43;;;14.40;;
55316;SDS011;41178;48.956;8.130;2022-12-07T18:48:54;26.63;;;17.43;;
55316;SDS011;41178;48.956;8.130;2022-12-07T18:53:57;23.07;;;16.20;;
55316;SDS011;41178;48.956;8.130;2022-12-07T18:59:01;22.37;;;15.70;;
55316;SDS011;41178;48.956;8.130;2022-12-07T19:04:23;24.53;;;18.57;;
55316;SDS011;41178;48.956;8.130;2022-12-07T19:09:24;28.03;;;17.33;;
55316;SDS011;41178;48.956;8.130;2022-12-07T19:14:30;26.77;;;19.37;;
55316;SDS011;41178;48.956;8.130;2022-12-07T19:19:38;23.30;;;16.40;;
55316;SDS011;41178;48.956;8.130;2022-12-07T19:24:47;30.80;;;21.33;;
55316;SDS011;41178;48.956;8.130;2022-12-07T19:29:50;31.40;;;21.47;;
55316;SDS011;41178;48.956;8.130;2022-12-07T19:34:52;25.13;;;18.60;;
55316;SDS011;41178;48.956;8.130;2022-12-07T19:39:56;25.40;;;16.27;;
55316;SDS011;41178;48.956;8.130;2022-12-07T19:44:59;20.70;;;15.50;;
55316;SDS011;41178;48.956;8.130;2022-12-07T19:50:01;21.67;;;15.80;;
55316;SDS011;41178;48.956;8.130;2022-12-07T19:55:04;21.40;;;15.50;;
55316;SDS011;41178;48.956;8.130;2022-12-07T20:00:06;22.40;;;14.80;;
55316;SDS011;41178;48.956;8.130;2022-12-07T20:05:09;22.57;;;14.67;;
55316;SDS011;41178;48.956;8.130;2022-12-07T20:10:11;24.63;;;16.47;;
55316;SDS011;41178;48.956;8.130;2022-12-07T20:15:13;24.17;;;17.10;;
55316;SDS011;41178;48.956;8.130;2022-12-07T20:20:15;25.73;;;17.47;;
55316;SDS011;41178;48.956;8.130;2022-12-07T20:25:16;27.40;;;17.33;;
55316;SDS011;41178;48.956;8.130;2022-12-07T20:30:20;25.07;;;16.33;;
55316;SDS011;41178;48.956;8.130;2022-12-07T20:35:22;22.60;;;14.73;;
55316;SDS011;41178;48.956;8.130;2022-12-07T20:40:23;24.60;;;15.53;;
55316;SDS011;41178;48.956;8.130;2022-12-07T20:45:25;22.07;;;15.70;;
55316;SDS011;41178;48.956;8.130;2022-12-07T20:50:30;24.27;;;16.33;;
55316;SDS011;41178;48.956;8.130;2022-12-07T20:55:31;23.63;;;16.57;;
55316;SDS011;41178;48.956;8.130;2022-12-07T21:00:34;25.70;;;16.83;;
55316;SDS011;41178;48.956;8.130;2022-12-07T21:05:37;27.77;;;17.40;;
55316;SDS011;41178;48.956;8.130;2022-12-07T21:10:39;26.57;;;16.23;;
55316;SDS011;41178;48.956;8.130;2022-12-07T21:15:40;25.77;;;16.20;;
55316;SDS011;41178;48.956;8.130;2022-12-07T21:20:42;22.43;;;15.00;;
55316;SDS011;41178;48.956;8.130;2022-12-07T21:25:44;24.97;;;15.53;;
55316;SDS011;41178;48.956;8.130;2022-12-07T21:30:46;24.37;;;17.43;;
55316;SDS011;41178;48.956;8.130;2022-12-07T21:36:09;22.60;;;16.67;;
55316;SDS011;41178;48.956;8.130;2022-12-07T21:41:19;24.33;;;14.63;;
55316;SDS011;41178;48.956;8.130;2022-12-07T21:46:26;24.97;;;15.63;;
55316;SDS011;41178;48.956;8.130;2022-12-07T21:51:35;22.83;;;15.17;;
55316;SDS011;41178;48.956;8.130;2022-12-07T21:56:38;23.37;;;15.27;;
55316;SDS011;41178;48.956;8.130;2022-12-07T22:01:42;21.83;;;15.07;;
55316;SDS011;41178;48.956;8.130;2022-12-07T22:06:47;24.87;;;17.03;;
55316;SDS011;41178;48.956;8.130;2022-12-07T22:11:50;21.07;;;14.70;;
55316;SDS011;41178;48.956;8.130;2022-12-07T22:16:52;22.90;;;14.43;;
55316;SDS011;41178;48.956;8.130;2022-12-07T22:21:53;24.67;;;16.07;;
55316;SDS011;41178;48.956;8.130;2022-12-07T22:26:55;20.03;;;14.17;;
55316;SDS011;41178;48.956;8.130;2022-12-07T22:31:57;21.50;;;14.30;;
55316;SDS011;41178;48.956;8.130;2022-12-07T22:36:59;19.07;;;13.33;;
55316;SDS011;41178;48.956;8.130;2022-12-07T22:42:00;22.03;;;14.43;;
55316;SDS011;41178;48.956;8.130;2022-12-07T22:47:02;17.47;;;12.77;;
55316;SDS011;41178;48.956;8.130;2022-12-07T22:52:05;20.17;;;13.60;;
55316;SDS011;41178;48.956;8.130;2022-12-07T22:57:07;17.67;;;13.43;;
55316;SDS011;41178;48.956;8.130;2022-12-07T23:02:10;22.90;;;14.40;;
55316;SDS011;41178;48.956;8.130;2022-12-07T23:07:13;18.60;;;12.73;;
55316;SDS011;41178;48.956;8.130;2022-12-07T23:12:15;21.03;;;13.20;;
55316;SDS011;41178;48.956;8.130;2022-12-07T23:17:35;16.47;;;11.53;;
55316;SDS011;41178;48.956;8.130;2022-12-07T23:22:37;17.57;;;12.77;;
55316;SDS011;41178;48.956;8.130;2022-12-07T23:27:39;16.70;;;10.90;;
55316;SDS011;41178;48.956;8.130;2022-12-07T23:32:41;13.90;;;8.33;;
55316;SDS011;41178;48.956;8.130;2022-12-07T23:37:42;21.77;;;12.87;;
55316;SDS011;41178;48.956;8.130;2022-12-07T23:42:44;12.43;;;8.03;;
55316;SDS011;41178;48.956;8.130;2022-12-07T23:47:46;21.40;;;14.07;;
55316;SDS011;41178;48.956;8.130;2022-12-07T23:52:48;20.20;;;12.30;;
55316;SDS011;41178;48.956;8.130;2022-12-07T23:57:49;18.77;;;12.77;;
